createdAt,value
2023-01-22T00:07:50.078Z,123.03
2023-01-22T00:17:51.906Z,134.15
2023-01-22T00:27:53.845Z,107.05
2023-01-22T00:37:55.829Z,120.88
2023-01-22T00:47:57.824Z,135.60
2023-01-22T00:58:00.085Z,153.35
2023-01-22T01:08:02.098Z,124.38
2023-01-22T01:18:04.406Z,96.32
2023-01-22T01:28:15.733Z,129.27
2023-01-22T01:38:17.767Z,155.77
2023-01-22T01:48:37.287Z,120.03
2023-01-22T01:58:41.890Z,132.00
2023-01-22T02:08:46.856Z,136.48
2023-01-22T02:18:49.567Z,102.20
2023-01-22T02:28:55.229Z,138.02
2023-01-22T02:39:01.452Z,112.30
2023-01-22T02:49:03.612Z,95.25
2023-01-22T02:59:07.255Z,114.03
2023-01-22T03:09:10.863Z,107.18
2023-01-22T03:19:14.432Z,101.35
2023-01-22T03:29:17.707Z,80.45
2023-01-22T03:39:20.072Z,109.15
2023-01-22T03:49:25.243Z,130.93
2023-01-22T03:59:46.851Z,70.82
2023-01-22T04:09:49.063Z,60.90
2023-01-22T04:19:50.981Z,54.55
2023-01-22T04:30:13.564Z,62.00
2023-01-22T04:40:16.282Z,69.78
2023-01-22T04:50:22.924Z,51.28
2023-01-22T05:00:27.131Z,43.20
2023-01-22T05:10:29.677Z,57.08
2023-01-22T05:20:32.498Z,50.70
2023-01-22T05:30:35.068Z,67.65
2023-01-22T05:40:57.347Z,29.75
2023-01-22T05:51:06.429Z,30.90
2023-01-22T06:01:09.954Z,36.05
2023-01-22T06:11:18.938Z,33.63
2023-01-22T06:21:20.970Z,35.42
2023-01-22T06:31:24.736Z,42.20
2023-01-22T06:41:26.919Z,32.40
2023-01-22T06:51:33.644Z,33.53
2023-01-22T07:01:36.733Z,37.38
2023-01-22T07:11:38.629Z,36.28
2023-01-22T07:21:40.579Z,39.63
2023-01-22T07:31:54.319Z,38.08
2023-01-22T07:41:59.168Z,30.75
2023-01-22T07:52:03.440Z,17.83
2023-01-22T08:02:06.500Z,26.60
2023-01-22T08:12:08.505Z,39.17
2023-01-22T08:22:10.324Z,26.38
2023-01-22T08:32:12.225Z,32.45
2023-01-22T08:42:14.194Z,50.92
2023-01-22T08:52:22.127Z,39.60
2023-01-22T09:02:24.141Z,47.30
2023-01-22T09:12:26.561Z,46.50
2023-01-22T09:22:28.433Z,33.67
2023-01-22T09:32:30.314Z,54.05
2023-01-22T09:42:39.863Z,41.78
2023-01-22T10:03:08.350Z,42.92
2023-01-22T10:13:24.867Z,50.85
2023-01-22T10:23:31.764Z,53.08
2023-01-22T10:33:37.382Z,50.38
2023-01-22T10:43:39.589Z,62.35
2023-01-22T10:53:48.892Z,52.50
2023-01-22T11:03:53.524Z,39.60
2023-01-22T11:14:02.597Z,51.40
2023-01-22T11:24:39.038Z,52.55
2023-01-22T11:35:17.957Z,33.60
2023-01-22T11:45:46.933Z,57.75
2023-01-22T11:56:25.809Z,50.10
2023-01-22T12:06:41.265Z,56.33
2023-01-22T12:16:55.642Z,57.13
2023-01-22T12:27:05.549Z,50.20
2023-01-22T12:37:12.387Z,60.05
2023-01-22T12:47:28.316Z,86.18
2023-01-22T12:57:41.554Z,66.32
2023-01-22T13:07:43.549Z,100.97
2023-01-22T13:18:06.249Z,60.65
2023-01-22T13:28:18.916Z,99.55
2023-01-22T13:38:26.599Z,90.18
2023-01-22T13:48:29.204Z,71.90
2023-01-22T13:58:46.720Z,51.30
2023-01-22T14:08:52.299Z,56.97
2023-01-22T14:18:54.056Z,56.47
2023-01-22T14:28:56.172Z,58.08
2023-01-22T14:38:58.575Z,67.55
2023-01-22T14:49:00.372Z,83.63
2023-01-22T14:59:02.432Z,105.13
2023-01-22T15:09:04.505Z,68.65
2023-01-22T15:19:06.417Z,73.20
2023-01-22T15:29:11.815Z,81.15
2023-01-22T15:39:13.788Z,69.22
2023-01-22T15:49:15.532Z,75.75
2023-01-22T15:59:17.883Z,112.25
2023-01-22T16:09:19.752Z,104.22
2023-01-22T16:19:21.579Z,86.70
2023-01-22T16:29:23.425Z,96.75
2023-01-22T16:39:25.337Z,73.28
2023-01-22T16:49:30.844Z,66.75
2023-01-22T16:59:34.478Z,64.45
2023-01-22T17:09:36.408Z,49.45
2023-01-22T17:19:38.317Z,67.40
2023-01-22T17:29:40.093Z,44.10
2023-01-22T17:39:41.998Z,40.33
2023-01-22T17:49:43.863Z,34.65
2023-01-22T17:59:47.322Z,41.40
2023-01-22T18:09:49.215Z,35.50
2023-01-22T18:19:51.137Z,40.08
2023-01-22T18:29:53.001Z,24.25
2023-01-22T18:39:56.105Z,46.88
2023-01-22T18:49:58.114Z,35.00
2023-01-22T18:59:59.956Z,36.35
2023-01-22T19:10:01.756Z,37.35
2023-01-22T19:20:04.398Z,35.83
2023-01-22T19:30:07.223Z,48.08
2023-01-22T19:40:10.021Z,31.05
2023-01-22T19:50:12.056Z,57.65
2023-01-22T20:00:14.210Z,47.55
2023-01-22T20:10:16.126Z,43.13
2023-01-22T20:20:18.108Z,25.98
2023-01-22T20:30:20.053Z,33.47
2023-01-22T20:40:21.885Z,25.15
2023-01-22T20:50:23.882Z,31.58
2023-01-22T21:00:25.805Z,15.20
2023-01-22T21:10:27.631Z,27.38
2023-01-22T21:20:29.870Z,24.00
2023-01-22T21:30:35.483Z,23.63
2023-01-22T21:40:37.411Z,32.80
2023-01-22T21:50:43.035Z,30.48
2023-01-22T22:00:44.968Z,33.40
2023-01-22T22:10:51.052Z,41.97
2023-01-22T22:20:52.979Z,33.00
2023-01-22T22:31:06.285Z,24.35
2023-01-22T22:41:12.842Z,48.50
2023-01-22T22:51:14.723Z,30.23
2023-01-22T23:01:19.088Z,30.30
2023-01-22T23:11:28.307Z,24.95
2023-01-22T23:21:30.462Z,33.63
2023-01-22T23:31:34.279Z,28.48
2023-01-22T23:41:36.168Z,19.17
2023-01-22T23:51:38.388Z,30.85
